Forside
METAR-TAF:

METAR-TAF

Lufthavne :

Malmö Airport

Malmø, Sverige

Breddekreds: 55-33N, længdekreds: 013-22E, højde: 106 m

Aktuelle vejr

Denne rapport blev lavet for 29 minutter siden, kl. 23:50 UTC
Vind 3 kt fra vest
Temperatur 2°C
Fugtighed 100%
Tryk 1027 hPa
Sigt: 0200 m
tåge

METAR: ESMS 222350Z 28003KT 0200 R17/0900N R35/0800N FG VV002 02/02 Q1027

Tid: 01:19 (00:19 UTC)

Vejrudsigter

Denne rapport blev lavet for 1 time og 12 minutter siden, kl. 23:07 UTC
Foreløbig gælder fra 23 på 00 UTC til 23 på 24 UTC
Vind 5 kt fra vest
Sigt: 0200 m
i en højde af 200 ft
tåge
Sandsynlighed 40%
fra 23 på 00 UTC til 23 på 12 UTC
Sigt: 3000 m
Brudte skyer i en højde af 500 ft
dis
Midlertidig
fra 23 på 12 UTC til 23 på 24 UTC
Sigt: 5000 m
Brudte skyer i en højde af 800 ft
dis

TAF: ESMS 222307Z 2300/2324 28005KT 0200 FG VV002 PROB40 2300/2312 3000 BR BKN005 TEMPO 2312/2324 5000 BR BKN008

Vejrobservationer og prognoser fra mere end 4000 lufthavne (METAR og TAF).

De gule og røde prikker repræsenterer de meteorologiske stationer.

Flyt musen over at se navnet på stationen.

Så klik over at se vejr observationer og prognoser.

At skifte det kort: Klik på de grønne knapper med et sort kors for at zoome ind; på den grønne knap med en bindestreg for at zoome ud; eller på de grønne pile for tilstødende kort.


METAR-TAF: